sensor_id;sensor_type;location;lat;lon;timestamp;P1;durP1;ratioP1;P2;durP2;ratioP2
51479;SDS011;37556;44.570;18.612;2024-03-02T06:29:33;7.20;;;4.60;;
51479;SDS011;37556;44.570;18.612;2024-03-02T06:31:59;6.72;;;2.78;;
51479;SDS011;37556;44.570;18.612;2024-03-02T06:34:26;7.65;;;2.83;;
51479;SDS011;37556;44.570;18.612;2024-03-02T06:36:52;3.30;;;2.15;;
51479;SDS011;37556;44.570;18.612;2024-03-02T06:39:18;14.23;;;5.95;;
51479;SDS011;37556;44.570;18.612;2024-03-02T06:41:44;4.07;;;3.78;;
51479;SDS011;37556;44.570;18.612;2024-03-02T06:44:12;6.15;;;4.70;;
51479;SDS011;37556;44.570;18.612;2024-03-02T06:49:04;5.20;;;4.75;;
51479;SDS011;37556;44.570;18.612;2024-03-02T06:51:30;9.18;;;3.60;;
51479;SDS011;37556;44.570;18.612;2024-03-02T06:53:56;7.05;;;6.03;;
51479;SDS011;37556;44.570;18.612;2024-03-02T06:56:22;5.35;;;3.90;;
51479;SDS011;37556;44.570;18.612;2024-03-02T06:58:49;4.90;;;1.77;;
51479;SDS011;37556;44.570;18.612;2024-03-02T07:01:15;3.90;;;2.90;;
51479;SDS011;37556;44.570;18.612;2024-03-02T07:03:41;3.05;;;2.88;;
51479;SDS011;37556;44.570;18.612;2024-03-02T07:06:08;3.78;;;3.47;;
51479;SDS011;37556;44.570;18.612;2024-03-02T07:11:00;10.02;;;3.70;;
51479;SDS011;37556;44.570;18.612;2024-03-02T07:13:26;4.88;;;3.28;;
51479;SDS011;37556;44.570;18.612;2024-03-02T07:15:52;5.78;;;4.40;;
51479;SDS011;37556;44.570;18.612;2024-03-02T07:18:28;5.07;;;2.88;;
51479;SDS011;37556;44.570;18.612;2024-03-02T07:20:54;15.75;;;4.30;;
51479;SDS011;37556;44.570;18.612;2024-03-02T07:23:23;13.80;;;5.65;;
51479;SDS011;37556;44.570;18.612;2024-03-02T07:25:52;7.53;;;4.88;;
51479;SDS011;37556;44.570;18.612;2024-03-02T07:28:24;5.53;;;4.03;;
51479;SDS011;37556;44.570;18.612;2024-03-02T07:31:00;5.00;;;2.35;;
51479;SDS011;37556;44.570;18.612;2024-03-02T07:33:27;8.50;;;4.28;;
51479;SDS011;37556;44.570;18.612;2024-03-02T07:38:19;2.38;;;2.25;;
51479;SDS011;37556;44.570;18.612;2024-03-02T07:43:11;2.90;;;2.70;;
51479;SDS011;37556;44.570;18.612;2024-03-02T07:45:37;7.70;;;3.08;;
51479;SDS011;37556;44.570;18.612;2024-03-02T07:48:03;5.55;;;2.92;;
51479;SDS011;37556;44.570;18.612;2024-03-02T07:50:29;2.42;;;2.28;;
51479;SDS011;37556;44.570;18.612;2024-03-02T07:52:56;13.88;;;2.75;;
51479;SDS011;37556;44.570;18.612;2024-03-02T07:55:22;4.07;;;3.70;;
51479;SDS011;37556;44.570;18.612;2024-03-02T07:57:50;3.25;;;2.55;;
51479;SDS011;37556;44.570;18.612;2024-03-02T08:02:42;4.28;;;3.45;;
51479;SDS011;37556;44.570;18.612;2024-03-02T08:05:08;4.65;;;3.88;;
51479;SDS011;37556;44.570;18.612;2024-03-02T08:07:34;7.05;;;4.50;;
51479;SDS011;37556;44.570;18.612;2024-03-02T08:10:00;3.33;;;2.28;;
51479;SDS011;37556;44.570;18.612;2024-03-02T08:12:26;1.63;;;1.52;;
51479;SDS011;37556;44.570;18.612;2024-03-02T08:14:53;1.52;;;1.35;;
51479;SDS011;37556;44.570;18.612;2024-03-02T08:17:19;2.40;;;2.08;;
51479;SDS011;37556;44.570;18.612;2024-03-02T08:19:45;2.85;;;2.10;;
51479;SDS011;37556;44.570;18.612;2024-03-02T08:22:13;4.90;;;4.25;;
51479;SDS011;37556;44.570;18.612;2024-03-02T08:27:05;2.50;;;2.08;;
51479;SDS011;37556;44.570;18.612;2024-03-02T08:29:31;1.98;;;1.88;;
51479;SDS011;37556;44.570;18.612;2024-03-02T08:34:23;4.45;;;2.72;;
51479;SDS011;37556;44.570;18.612;2024-03-02T08:36:49;3.75;;;3.10;;
51479;SDS011;37556;44.570;18.612;2024-03-02T08:39:16;3.03;;;2.42;;
51479;SDS011;37556;44.570;18.612;2024-03-02T08:41:44;6.35;;;2.92;;
51479;SDS011;37556;44.570;18.612;2024-03-02T08:44:11;5.28;;;4.88;;
51479;SDS011;37556;44.570;18.612;2024-03-02T08:46:38;5.97;;;3.50;;
51479;SDS011;37556;44.570;18.612;2024-03-02T08:49:04;2.33;;;2.22;;
51479;SDS011;37556;44.570;18.612;2024-03-02T08:51:31;3.20;;;2.45;;
51479;SDS011;37556;44.570;18.612;2024-03-02T08:56:23;4.97;;;2.85;;
51479;SDS011;37556;44.570;18.612;2024-03-02T08:58:50;3.15;;;2.95;;
51479;SDS011;37556;44.570;18.612;2024-03-02T09:01:16;1.85;;;1.75;;
51479;SDS011;37556;44.570;18.612;2024-03-02T09:03:42;2.20;;;1.20;;
51479;SDS011;37556;44.570;18.612;2024-03-02T09:06:12;1.23;;;1.13;;
51479;SDS011;37556;44.570;18.612;2024-03-02T09:08:39;1.27;;;1.00;;
51479;SDS011;37556;44.570;18.612;2024-03-02T09:11:05;2.22;;;1.85;;
51479;SDS011;37556;44.570;18.612;2024-03-02T09:13:32;0.77;;;0.77;;
51479;SDS011;37556;44.570;18.612;2024-03-02T09:15:59;0.60;;;0.60;;
51479;SDS011;37556;44.570;18.612;2024-03-02T09:18:25;4.82;;;1.85;;
51479;SDS011;37556;44.570;18.612;2024-03-02T09:23:17;4.30;;;1.80;;
51479;SDS011;37556;44.570;18.612;2024-03-02T09:25:43;2.63;;;2.03;;
51479;SDS011;37556;44.570;18.612;2024-03-02T09:30:35;1.75;;;1.65;;
51479;SDS011;37556;44.570;18.612;2024-03-02T09:35:27;1.85;;;1.75;;
51479;SDS011;37556;44.570;18.612;2024-03-02T09:37:54;5.63;;;1.92;;
51479;SDS011;37556;44.570;18.612;2024-03-02T09:40:24;1.67;;;1.63;;
51479;SDS011;37556;44.570;18.612;2024-03-02T09:42:50;2.00;;;1.65;;
51479;SDS011;37556;44.570;18.612;2024-03-02T09:45:24;1.20;;;1.13;;
51479;SDS011;37556;44.570;18.612;2024-03-02T09:47:51;2.67;;;1.20;;
51479;SDS011;37556;44.570;18.612;2024-03-02T09:50:17;0.38;;;0.38;;
51479;SDS011;37556;44.570;18.612;2024-03-02T09:52:43;0.40;;;0.40;;
51479;SDS011;37556;44.570;18.612;2024-03-02T09:55:10;0.40;;;0.40;;
51479;SDS011;37556;44.570;18.612;2024-03-02T09:57:37;0.57;;;0.57;;
51479;SDS011;37556;44.570;18.612;2024-03-02T10:00:03;0.77;;;0.77;;
51479;SDS011;37556;44.570;18.612;2024-03-02T10:02:30;3.05;;;1.70;;
51479;SDS011;37556;44.570;18.612;2024-03-02T10:04:56;1.00;;;1.00;;
51479;SDS011;37556;44.570;18.612;2024-03-02T10:07:22;1.52;;;1.45;;
51479;SDS011;37556;44.570;18.612;2024-03-02T10:09:49;0.00;;;0.00;;
51479;SDS011;37556;44.570;18.612;2024-03-02T10:12:17;0.20;;;0.20;;
51479;SDS011;37556;44.570;18.612;2024-03-02T10:14:43;2.22;;;2.03;;
51479;SDS011;37556;44.570;18.612;2024-03-02T10:17:10;1.40;;;0.85;;
51479;SDS011;37556;44.570;18.612;2024-03-02T10:19:37;0.65;;;0.65;;
51479;SDS011;37556;44.570;18.612;2024-03-02T10:22:04;0.50;;;0.50;;
51479;SDS011;37556;44.570;18.612;2024-03-02T10:24:40;9.85;;;1.52;;
51479;SDS011;37556;44.570;18.612;2024-03-02T10:27:07;0.90;;;0.90;;
51479;SDS011;37556;44.570;18.612;2024-03-02T10:29:36;4.97;;;1.75;;
51479;SDS011;37556;44.570;18.612;2024-03-02T10:32:03;2.72;;;0.65;;
51479;SDS011;37556;44.570;18.612;2024-03-02T10:34:29;0.73;;;0.73;;
51479;SDS011;37556;44.570;18.612;2024-03-02T10:36:56;0.45;;;0.45;;
51479;SDS011;37556;44.570;18.612;2024-03-02T10:39:22;1.30;;;1.23;;
51479;SDS011;37556;44.570;18.612;2024-03-02T10:41:50;0.65;;;0.65;;
51479;SDS011;37556;44.570;18.612;2024-03-02T10:44:18;0.30;;;0.30;;
51479;SDS011;37556;44.570;18.612;2024-03-02T10:46:45;0.88;;;0.35;;
51479;SDS011;37556;44.570;18.612;2024-03-02T10:49:11;3.03;;;0.73;;
51479;SDS011;37556;44.570;18.612;2024-03-02T10:51:38;0.95;;;0.52;;
51479;SDS011;37556;44.570;18.612;2024-03-02T10:54:04;1.77;;;1.48;;
51479;SDS011;37556;44.570;18.612;2024-03-02T10:56:32;0.65;;;0.57;;
51479;SDS011;37556;44.570;18.612;2024-03-02T10:59:02;0.10;;;0.10;;
51479;SDS011;37556;44.570;18.612;2024-03-02T11:01:29;2.33;;;1.63;;
51479;SDS011;37556;44.570;18.612;2024-03-02T11:03:56;1.90;;;1.60;;
51479;SDS011;37556;44.570;18.612;2024-03-02T11:06:22;0.85;;;0.85;;
51479;SDS011;37556;44.570;18.612;2024-03-02T11:08:48;1.98;;;1.85;;
51479;SDS011;37556;44.570;18.612;2024-03-02T11:11:15;2.63;;;0.93;;
51479;SDS011;37556;44.570;18.612;2024-03-02T11:13:47;0.35;;;0.35;;
51479;SDS011;37556;44.570;18.612;2024-03-02T11:16:31;0.68;;;0.68;;
51479;SDS011;37556;44.570;18.612;2024-03-02T11:19:00;1.45;;;0.95;;
51479;SDS011;37556;44.570;18.612;2024-03-02T11:21:27;0.28;;;0.28;;
51479;SDS011;37556;44.570;18.612;2024-03-02T11:23:54;2.72;;;0.47;;
51479;SDS011;37556;44.570;18.612;2024-03-02T11:26:20;1.35;;;0.95;;
51479;SDS011;37556;44.570;18.612;2024-03-02T11:28:48;0.47;;;0.47;;
51479;SDS011;37556;44.570;18.612;2024-03-02T11:31:14;0.60;;;0.60;;
51479;SDS011;37556;44.570;18.612;2024-03-02T11:33:40;2.35;;;0.63;;
51479;SDS011;37556;44.570;18.612;2024-03-02T11:36:08;0.43;;;0.43;;
51479;SDS011;37556;44.570;18.612;2024-03-02T11:38:34;1.10;;;0.95;;
51479;SDS011;37556;44.570;18.612;2024-03-02T11:41:01;0.10;;;0.10;;
51479;SDS011;37556;44.570;18.612;2024-03-02T11:43:28;0.20;;;0.20;;
51479;SDS011;37556;44.570;18.612;2024-03-02T11:45:58;0.20;;;0.20;;
51479;SDS011;37556;44.570;18.612;2024-03-02T11:48:24;0.28;;;0.28;;
51479;SDS011;37556;44.570;18.612;2024-03-02T11:50:51;0.30;;;0.30;;
51479;SDS011;37556;44.570;18.612;2024-03-02T11:53:17;0.10;;;0.10;;
51479;SDS011;37556;44.570;18.612;2024-03-02T11:55:44;0.52;;;0.52;;
51479;SDS011;37556;44.570;18.612;2024-03-02T11:58:11;0.38;;;0.32;;
51479;SDS011;37556;44.570;18.612;2024-03-02T12:00:38;0.73;;;0.73;;
51479;SDS011;37556;44.570;18.612;2024-03-02T12:03:07;0.40;;;0.40;;
51479;SDS011;37556;44.570;18.612;2024-03-02T12:05:34;0.20;;;0.20;;
51479;SDS011;37556;44.570;18.612;2024-03-02T12:08:01;0.40;;;0.40;;
51479;SDS011;37556;44.570;18.612;2024-03-02T12:10:28;0.40;;;0.40;;
51479;SDS011;37556;44.570;18.612;2024-03-02T12:15:27;2.03;;;0.40;;
51479;SDS011;37556;44.570;18.612;2024-03-02T12:17:54;1.00;;;0.65;;
51479;SDS011;37556;44.570;18.612;2024-03-02T12:20:20;0.45;;;0.45;;
51479;SDS011;37556;44.570;18.612;2024-03-02T12:22:48;4.57;;;2.15;;
51479;SDS011;37556;44.570;18.612;2024-03-02T12:25:15;1.83;;;0.73;;
51479;SDS011;37556;44.570;18.612;2024-03-02T12:27:42;3.70;;;0.95;;
51479;SDS011;37556;44.570;18.612;2024-03-02T12:30:08;1.20;;;1.10;;
51479;SDS011;37556;44.570;18.612;2024-03-02T12:32:36;0.82;;;0.40;;
51479;SDS011;37556;44.570;18.612;2024-03-02T12:35:04;0.40;;;0.40;;
51479;SDS011;37556;44.570;18.612;2024-03-02T12:37:30;0.57;;;0.57;;
51479;SDS011;37556;44.570;18.612;2024-03-02T12:39:57;0.63;;;0.63;;
51479;SDS011;37556;44.570;18.612;2024-03-02T12:42:23;0.55;;;0.47;;
51479;SDS011;37556;44.570;18.612;2024-03-02T12:44:53;0.45;;;0.45;;
51479;SDS011;37556;44.570;18.612;2024-03-02T12:47:20;1.58;;;1.48;;
51479;SDS011;37556;44.570;18.612;2024-03-02T12:49:46;2.40;;;1.55;;
51479;SDS011;37556;44.570;18.612;2024-03-02T12:52:15;1.33;;;1.23;;
51479;SDS011;37556;44.570;18.612;2024-03-02T12:54:42;1.25;;;1.17;;
51479;SDS011;37556;44.570;18.612;2024-03-02T12:57:09;1.30;;;1.25;;
51479;SDS011;37556;44.570;18.612;2024-03-02T12:59:35;2.92;;;1.15;;
51479;SDS011;37556;44.570;18.612;2024-03-02T13:02:02;1.17;;;0.63;;
51479;SDS011;37556;44.570;18.612;2024-03-02T13:04:28;1.38;;;0.45;;
51479;SDS011;37556;44.570;18.612;2024-03-02T13:06:56;1.10;;;1.10;;
51479;SDS011;37556;44.570;18.612;2024-03-02T13:09:23;0.80;;;0.52;;
51479;SDS011;37556;44.570;18.612;2024-03-02T13:11:49;0.38;;;0.20;;
51479;SDS011;37556;44.570;18.612;2024-03-02T13:14:15;1.35;;;0.85;;
51479;SDS011;37556;44.570;18.612;2024-03-02T13:16:41;18.20;;;0.95;;
51479;SDS011;37556;44.570;18.612;2024-03-02T13:19:10;1.17;;;1.17;;
51479;SDS011;37556;44.570;18.612;2024-03-02T13:21:37;1.35;;;0.47;;
51479;SDS011;37556;44.570;18.612;2024-03-02T13:24:03;12.45;;;1.17;;
51479;SDS011;37556;44.570;18.612;2024-03-02T13:26:30;0.70;;;0.70;;
51479;SDS011;37556;44.570;18.612;2024-03-02T13:28:56;0.10;;;0.10;;
51479;SDS011;37556;44.570;18.612;2024-03-02T13:31:22;0.20;;;0.20;;
51479;SDS011;37556;44.570;18.612;2024-03-02T13:33:48;4.13;;;1.55;;
51479;SDS011;37556;44.570;18.612;2024-03-02T13:36:14;0.20;;;0.20;;
51479;SDS011;37556;44.570;18.612;2024-03-02T13:38:40;0.10;;;0.10;;
51479;SDS011;37556;44.570;18.612;2024-03-02T13:41:07;0.17;;;0.10;;
51479;SDS011;37556;44.570;18.612;2024-03-02T13:43:33;0.63;;;0.52;;
51479;SDS011;37556;44.570;18.612;2024-03-02T13:46:01;0.20;;;0.20;;
51479;SDS011;37556;44.570;18.612;2024-03-02T13:48:27;0.40;;;0.35;;
51479;SDS011;37556;44.570;18.612;2024-03-02T13:50:53;0.28;;;0.25;;
51479;SDS011;37556;44.570;18.612;2024-03-02T13:53:20;0.15;;;0.15;;
51479;SDS011;37556;44.570;18.612;2024-03-02T13:55:46;0.65;;;0.38;;
51479;SDS011;37556;44.570;18.612;2024-03-02T13:58:12;0.40;;;0.40;;
51479;SDS011;37556;44.570;18.612;2024-03-02T14:00:39;0.30;;;0.30;;
51479;SDS011;37556;44.570;18.612;2024-03-02T14:03:08;0.38;;;0.38;;
51479;SDS011;37556;44.570;18.612;2024-03-02T14:05:34;0.22;;;0.22;;
51479;SDS011;37556;44.570;18.612;2024-03-02T14:08:02;0.20;;;0.20;;
51479;SDS011;37556;44.570;18.612;2024-03-02T14:10:29;0.38;;;0.38;;
51479;SDS011;37556;44.570;18.612;2024-03-02T14:12:55;0.43;;;0.43;;
51479;SDS011;37556;44.570;18.612;2024-03-02T14:15:22;0.40;;;0.40;;
51479;SDS011;37556;44.570;18.612;2024-03-02T14:17:49;0.22;;;0.22;;
51479;SDS011;37556;44.570;18.612;2024-03-02T14:20:15;0.17;;;0.17;;
51479;SDS011;37556;44.570;18.612;2024-03-02T14:22:46;0.60;;;0.60;;
51479;SDS011;37556;44.570;18.612;2024-03-02T14:25:13;0.30;;;0.30;;
51479;SDS011;37556;44.570;18.612;2024-03-02T14:27:39;0.38;;;0.38;;
51479;SDS011;37556;44.570;18.612;2024-03-02T14:30:05;0.38;;;0.38;;
51479;SDS011;37556;44.570;18.612;2024-03-02T14:32:32;0.47;;;0.47;;
51479;SDS011;37556;44.570;18.612;2024-03-02T14:34:58;1.20;;;0.57;;
51479;SDS011;37556;44.570;18.612;2024-03-02T14:37:24;0.40;;;0.40;;
51479;SDS011;37556;44.570;18.612;2024-03-02T14:39:50;2.83;;;0.90;;
51479;SDS011;37556;44.570;18.612;2024-03-02T14:42:16;0.63;;;0.63;;
51479;SDS011;37556;44.570;18.612;2024-03-02T14:44:42;6.15;;;0.85;;
51479;SDS011;37556;44.570;18.612;2024-03-02T14:47:09;1.17;;;1.15;;
51479;SDS011;37556;44.570;18.612;2024-03-02T14:52:03;0.55;;;0.55;;
51479;SDS011;37556;44.570;18.612;2024-03-02T14:54:29;1.30;;;1.20;;
51479;SDS011;37556;44.570;18.612;2024-03-02T14:56:55;1.40;;;1.30;;
51479;SDS011;37556;44.570;18.612;2024-03-02T14:59:22;1.88;;;1.70;;
51479;SDS011;37556;44.570;18.612;2024-03-02T15:01:48;1.13;;;0.35;;
51479;SDS011;37556;44.570;18.612;2024-03-02T15:09:07;1.10;;;1.02;;
51479;SDS011;37556;44.570;18.612;2024-03-02T15:11:33;0.52;;;0.52;;
51479;SDS011;37556;44.570;18.612;2024-03-02T15:16:25;1.65;;;1.00;;
51479;SDS011;37556;44.570;18.612;2024-03-02T15:18:53;1.27;;;0.75;;
51479;SDS011;37556;44.570;18.612;2024-03-02T15:23:45;0.63;;;0.63;;
51479;SDS011;37556;44.570;18.612;2024-03-02T15:28:37;0.70;;;0.60;;
51479;SDS011;37556;44.570;18.612;2024-03-02T15:33:29;1.33;;;1.25;;
51479;SDS011;37556;44.570;18.612;2024-03-02T15:35:58;4.00;;;1.40;;
51479;SDS011;37556;44.570;18.612;2024-03-02T15:38:24;4.00;;;1.67;;
51479;SDS011;37556;44.570;18.612;2024-03-02T15:43:17;1.20;;;1.10;;
51479;SDS011;37556;44.570;18.612;2024-03-02T15:48:09;1.98;;;0.98;;
51479;SDS011;37556;44.570;18.612;2024-03-02T15:50:35;1.33;;;1.33;;
51479;SDS011;37556;44.570;18.612;2024-03-02T15:53:02;5.18;;;2.03;;
51479;SDS011;37556;44.570;18.612;2024-03-02T15:55:31;3.00;;;2.72;;
51479;SDS011;37556;44.570;18.612;2024-03-02T15:57:59;0.98;;;0.60;;
51479;SDS011;37556;44.570;18.612;2024-03-02T16:02:51;2.20;;;2.05;;
51479;SDS011;37556;44.570;18.612;2024-03-02T16:05:17;2.30;;;1.50;;
51479;SDS011;37556;44.570;18.612;2024-03-02T16:07:45;2.50;;;2.17;;
51479;SDS011;37556;44.570;18.612;2024-03-02T16:12:38;3.05;;;1.75;;
51479;SDS011;37556;44.570;18.612;2024-03-02T16:17:30;2.17;;;2.05;;
51479;SDS011;37556;44.570;18.612;2024-03-02T16:22:23;1.00;;;1.00;;
51479;SDS011;37556;44.570;18.612;2024-03-02T16:24:50;2.05;;;1.95;;
51479;SDS011;37556;44.570;18.612;2024-03-02T16:29:43;3.23;;;1.33;;
51479;SDS011;37556;44.570;18.612;2024-03-02T16:32:09;1.27;;;1.17;;
51479;SDS011;37556;44.570;18.612;2024-03-02T16:37:03;3.50;;;2.67;;
51479;SDS011;37556;44.570;18.612;2024-03-02T16:39:29;0.95;;;0.95;;
51479;SDS011;37556;44.570;18.612;2024-03-02T16:44:21;0.65;;;0.57;;
51479;SDS011;37556;44.570;18.612;2024-03-02T16:46:48;2.78;;;1.75;;
51479;SDS011;37556;44.570;18.612;2024-03-02T16:49:14;1.02;;;1.02;;
51479;SDS011;37556;44.570;18.612;2024-03-02T16:54:06;0.82;;;0.82;;
51479;SDS011;37556;44.570;18.612;2024-03-02T16:58:58;4.60;;;1.73;;
51479;SDS011;37556;44.570;18.612;2024-03-02T17:03:51;10.40;;;3.00;;
51479;SDS011;37556;44.570;18.612;2024-03-02T17:08:43;0.88;;;0.82;;
51479;SDS011;37556;44.570;18.612;2024-03-02T17:11:10;1.10;;;1.00;;
51479;SDS011;37556;44.570;18.612;2024-03-02T17:13:36;1.55;;;1.42;;
51479;SDS011;37556;44.570;18.612;2024-03-02T17:16:02;3.30;;;2.97;;
51479;SDS011;37556;44.570;18.612;2024-03-02T17:18:29;5.07;;;1.58;;
51479;SDS011;37556;44.570;18.612;2024-03-02T17:23:21;1.45;;;1.13;;
51479;SDS011;37556;44.570;18.612;2024-03-02T17:25:47;18.98;;;1.23;;
